地図

経路データ

SID SEASON NUMBER BASIN SUBBASIN NAME ISO_TIME NATURE LAT LON WMO_WIND WMO_PRES WMO_AGENCY TRACK_TYPE DIST2LAND LANDFALL IFLAG USA_AGENCY USA_ATCF_ID USA_LAT USA_LON USA_RECORD USA_STATUS USA_WIND USA_PRES USA_SSHS USA_R34_NE USA_R34_SE USA_R34_SW USA_R34_NW USA_R50_NE USA_R50_SE USA_R50_SW USA_R50_NW USA_R64_NE USA_R64_SE USA_R64_SW USA_R64_NW USA_POCI USA_ROCI USA_RMW USA_EYE TOKYO_LAT TOKYO_LON TOKYO_GRADE TOKYO_WIND TOKYO_PRES TOKYO_R50_DIR TOKYO_R50_LONG TOKYO_R50_SHORT TOKYO_R30_DIR TOKYO_R30_LONG TOKYO_R30_SHORT TOKYO_LAND CMA_LAT CMA_LON CMA_CAT CMA_WIND CMA_PRES HKO_LAT HKO_LON HKO_CAT HKO_WIND HKO_PRES NEWDELHI_LAT NEWDELHI_LON NEWDELHI_GRADE NEWDELHI_WIND NEWDELHI_PRES NEWDELHI_CI NEWDELHI_DP NEWDELHI_POCI REUNION_LAT REUNION_LON REUNION_TYPE REUNION_WIND REUNION_PRES REUNION_TNUM REUNION_CI REUNION_RMW REUNION_R34_NE REUNION_R34_SE REUNION_R34_SW REUNION_R34_NW REUNION_R50_NE REUNION_R50_SE REUNION_R50_SW REUNION_R50_NW REUNION_R64_NE REUNION_R64_SE REUNION_R64_SW REUNION_R64_NW BOM_LAT BOM_LON BOM_TYPE BOM_WIND BOM_PRES BOM_TNUM BOM_CI BOM_RMW BOM_R34_NE BOM_R34_SE BOM_R34_SW BOM_R34_NW BOM_R50_NE BOM_R50_SE BOM_R50_SW BOM_R50_NW BOM_R64_NE BOM_R64_SE BOM_R64_SW BOM_R64_NW BOM_ROCI BOM_POCI BOM_EYE BOM_POS_METHOD BOM_PRES_METHOD NADI_LAT NADI_LON NADI_CAT NADI_WIND NADI_PRES WELLINGTON_LAT WELLINGTON_LON WELLINGTON_WIND WELLINGTON_PRES DS824_LAT DS824_LON DS824_STAGE DS824_WIND DS824_PRES TD9636_LAT TD9636_LON TD9636_STAGE TD9636_WIND TD9636_PRES TD9635_LAT TD9635_LON TD9635_WIND TD9635_PRES TD9635_ROCI NEUMANN_LAT NEUMANN_LON NEUMANN_CLASS NEUMANN_WIND NEUMANN_PRES MLC_LAT MLC_LON MLC_CLASS MLC_WIND MLC_PRES USA_GUST BOM_GUST BOM_GUST_PER REUNION_GUST REUNION_GUST_PER USA_SEAHGT USA_SEARAD_NE USA_SEARAD_SE USA_SEARAD_SW USA_SEARAD_NW STORM_SPEED STORM_DIR
1984051S20163 1984 20 SP MM NOT_NAMED 1984-02-20 00:00:00 NR -19.5000 163.000 30 997 wellington main 137 59 ________O_____ -1 -19.5000 163.000 30 997 18 103
1984051S20163 1984 20 SP MM NOT_NAMED 1984-02-20 03:00:00 NR -19.6983 163.927 main 59 45 ________P_____ -1 -19.6983 163.927 30 997 18 103
1984051S20163 1984 20 SP MM NOT_NAMED 1984-02-20 06:00:00 NR -19.8852 164.835 main 54 54 ________P_____ -1 -19.8852 164.835 30 997 17 102
1984051S20163 1984 20 SP MM NOT_NAMED 1984-02-20 09:00:00 NR -20.0544 165.700 main 94 94 ________P_____ -1 -20.0544 165.700 30 997 16 101
1984051S20163 1984 20 SP MM NOT_NAMED 1984-02-20 12:00:00 NR -20.2000 166.500 30 997 wellington main 145 145 ________O_____ -1 -20.2000 166.500 30 997 15 101
1984051S20163 1984 20 SP MM NOT_NAMED 1984-02-20 15:00:00 NR -20.3208 167.222 main 176 176 ________P_____ -1 -20.3208 167.222 30 997 13 100
1984051S20163 1984 20 SP MM NOT_NAMED 1984-02-20 18:00:00 NR -20.4319 167.890 main 212 212 ________P_____ -1 -20.4319 167.890 30 997 13 101
1984051S20163 1984 20 SP MM NOT_NAMED 1984-02-20 21:00:00 NR -20.5522 168.537 main 235 235 ________P_____ -1 -20.5522 168.537 30 997 13 102
1984051S20163 1984 20 SP MM NOT_NAMED 1984-02-21 00:00:00 NR -20.7000 169.200 30 997 wellington main 282 282 ________O_____ -1 -20.7000 169.200 30 997 14 103
1984051S20163 1984 20 SP MM NOT_NAMED 1984-02-21 03:00:00 NR -20.8559 169.958 main 342 342 ________P_____ -1 -20.8559 169.958 30 997 15 104
1984051S20163 1984 20 SP MM NOT_NAMED 1984-02-21 06:00:00 NR -21.0456 170.731 main 405 405 ________P_____ -1 -21.0456 170.731 30 997 15 107
1984051S20163 1984 20 SP MM NOT_NAMED 1984-02-21 09:00:00 NR -21.2873 171.489 main 475 475 ________P_____ -1 -21.2873 171.489 30 997 15 112
1984051S20163 1984 20 SP MM NOT_NAMED 1984-02-21 12:00:00 NR -21.6000 172.200 30 997 wellington main 540 540 ________O_____ -1 -21.6000 172.200 30 997 15 119
1984051S20163 1984 20 SP MM NOT_NAMED 1984-02-21 15:00:00 NR -22.0191 172.896 main 608 608 ________P_____ -1 -22.0191 172.896 30 997 15 126
1984051S20163 1984 20 SP MM NOT_NAMED 1984-02-21 18:00:00 NR -22.5050 173.534 main 631 625 ________P_____ -1 -22.5050 173.534 30 997 15 132
1984051S20163 1984 20 SP MM NOT_NAMED 1984-02-21 21:00:00 NR -23.0133 174.081 main 641 641 ________P_____ -1 -23.0133 174.081 30 997 13 138
1984051S20163 1984 20 SP MM NOT_NAMED 1984-02-22 00:00:00 NR -23.5000 174.500 30 997 wellington main 670 670 ________O_____ -1 -23.5000 174.500 30 997 11 144
1984051S20163 1984 20 SP MM NOT_NAMED 1984-02-22 03:00:00 NR -23.8983 174.777 main 698 698 ________P_____ -1 -23.8983 174.777 32 995 9 153
1984051S20163 1984 20 SP MM NOT_NAMED 1984-02-22 06:00:00 NR -24.2710 174.925 main 736 736 ________P_____ -1 -24.2710 174.925 35 993 8 166
1984051S20163 1984 20 SP MM NOT_NAMED 1984-02-22 09:00:00 NR -24.6332 174.985 main 764 764 ________P_____ -1 -24.6332 174.985 37 991 7 174
1984051S20163 1984 20 SP MM NOT_NAMED 1984-02-22 12:00:00 NR -25.0000 175.000 40 990 wellington main 806 806 ________O_____ -1 -25.0000 175.000 40 990 8 177
1984051S20163 1984 20 SP MM NOT_NAMED 1984-02-22 15:00:00 NR -25.4212 175.036 main 848 848 ________P_____ -1 -25.4212 175.036 41 989 9 177
1984051S20163 1984 20 SP MM NOT_NAMED 1984-02-22 18:00:00 NR -25.8449 175.038 main 890 890 ________P_____ -1 -25.8449 175.038 42 988 8 181
1984051S20163 1984 20 SP MM NOT_NAMED 1984-02-22 21:00:00 NR -26.2462 175.021 main 920 901 ________P_____ -1 -26.2462 175.021 43 987 8 183
1984051S20163 1984 20 SP MM NOT_NAMED 1984-02-23 00:00:00 NR -26.6000 175.000 45 987 wellington main 901 869 ________O_____ -1 -26.6000 175.000 45 987 6 0
1984051S20163 1984 20 SP MM NOT_NAMED 1984-02-23 03:00:00 NR -26.8915 175.000 main 869 847 ________P_____ -1 -26.8915 175.000 43 987 5 0
1984051S20163 1984 20 SP MM NOT_NAMED 1984-02-23 06:00:00 NR -27.1325 175.000 main 847 825 ________P_____ -1 -27.1325 175.000 42 988 4 0
1984051S20163 1984 20 SP MM NOT_NAMED 1984-02-23 09:00:00 NR -27.3322 175.000 main 825 803 ________P_____ -1 -27.3322 175.000 41 989 4 0
1984051S20163 1984 20 SP MM NOT_NAMED 1984-02-23 12:00:00 NR -27.5000 175.000 40 990 wellington main 803 792 ________O_____ -1 -27.5000 175.000 40 990 3 0
1984051S20163 1984 20 SP MM NOT_NAMED 1984-02-23 15:00:00 NR -27.6447 175.000 main 792 771 ________P_____ -1 -27.6447 175.000 38 991 3 0
1984051S20163 1984 20 SP MM NOT_NAMED 1984-02-23 18:00:00 NR -27.7725 175.000 main 771 760 ________P_____ -1 -27.7725 175.000 37 992 2 0
1984051S20163 1984 20 SP MM NOT_NAMED 1984-02-23 21:00:00 NR -27.8891 175.000 main 760 749 ________P_____ -1 -27.8891 175.000 36 993 2 0
1984051S20163 1984 20 SP MM NOT_NAMED 1984-02-24 00:00:00 NR -28.0000 175.000 35 995 wellington main 749 ________O_____ -1 -28.0000 175.000 35 995 2 172

デジタル台風データ・検索

IBTrACS Databaseについて

本データベースは、米国NOAAが公開する1842年以降の世界の熱帯低気圧のベストトラックデータアーカイブInternational Best Track Archive for Climate Stewardship (IBTrACS)を、ウェブで閲覧しやすい形式に変換したものです。

最終更新日:2021-12-01